createdAt,value
2022-07-30T00:03:49.418Z,1.05
2022-07-30T00:18:48.582Z,1.46
2022-07-30T00:33:48.805Z,1.33
2022-07-30T00:48:49.124Z,1.24
2022-07-30T01:03:48.434Z,1.24
2022-07-30T01:18:48.829Z,1.62
2022-07-30T01:33:49.196Z,1.78
2022-07-30T01:48:48.785Z,2.74
2022-07-30T02:03:49.268Z,2.74
2022-07-30T04:48:49.218Z,4.67
2022-07-30T05:03:48.923Z,4.89
2022-07-30T05:18:48.512Z,4.7
2022-07-30T05:33:48.787Z,16.86
2022-07-30T05:48:49.011Z,6.41
2022-07-30T06:03:49.143Z,7.56
2022-07-30T06:18:48.736Z,5.98
2022-07-30T06:33:49.146Z,6.48
2022-07-30T06:48:48.713Z,6.82
2022-07-30T07:03:49.053Z,6.14
2022-07-30T07:18:48.555Z,6.52
2022-07-30T07:33:48.784Z,6.14
2022-07-30T07:48:48.487Z,6.19
2022-07-30T08:03:48.639Z,6.33
2022-07-30T08:18:49.207Z,6.26
2022-07-30T08:33:48.440Z,6.76
2022-07-30T09:03:48.493Z,6.49
2022-07-30T09:18:49.307Z,6.92
2022-07-30T09:33:49.228Z,6.74
2022-07-30T09:48:49.137Z,6.66
2022-07-30T10:03:49.271Z,7.17
2022-07-30T10:18:48.807Z,7.72
2022-07-30T10:33:48.941Z,7.88
2022-07-30T10:48:49.323Z,7.37
2022-07-30T11:03:48.875Z,8.22
2022-07-30T11:18:50.959Z,6.78
2022-07-30T11:33:49.240Z,6.89
2022-07-30T11:48:48.459Z,5.85
2022-07-30T12:03:49.274Z,5.13
2022-07-30T12:18:48.417Z,4.7
2022-07-30T12:33:48.568Z,4.43
2022-07-30T12:48:48.834Z,3.79
2022-07-30T13:03:48.582Z,4.89
2022-07-30T13:18:48.782Z,3.54
2022-07-30T13:33:48.703Z,3.72
2022-07-30T13:48:48.964Z,3.86
2022-07-30T14:03:49.802Z,4.77
2022-07-30T14:18:48.481Z,4.29
2022-07-30T14:33:48.755Z,3.8
2022-07-30T14:48:48.851Z,3.86
2022-07-30T15:03:48.862Z,3.47
2022-07-30T15:18:48.833Z,3.07
2022-07-30T15:33:48.801Z,3.14
2022-07-30T15:48:48.783Z,3.48
2022-07-30T16:03:48.942Z,3.43
2022-07-30T16:18:48.471Z,3.28
2022-07-30T16:33:48.987Z,3.22
2022-07-30T16:48:50.403Z,3.12
2022-07-30T17:03:49.160Z,3.3
2022-07-30T17:18:48.775Z,3.46
2022-07-30T17:33:48.429Z,4.26
2022-07-30T17:48:48.899Z,3.75
2022-07-30T18:03:48.507Z,3.46
2022-07-30T18:18:49.062Z,3.71
2022-07-30T18:33:48.826Z,4.55
2022-07-30T18:48:48.768Z,5.08
2022-07-30T19:03:49.128Z,9.68
2022-07-30T19:18:48.557Z,6.88
2022-07-30T19:33:48.531Z,9.87
2022-07-30T19:48:48.493Z,6.89
2022-07-30T20:03:48.519Z,6.84
2022-07-30T20:18:49.646Z,6.74
2022-07-30T20:33:49.472Z,6.81
2022-07-30T20:48:48.691Z,6.75
2022-07-30T21:03:48.820Z,7.09
2022-07-30T21:18:49.729Z,6.38
2022-07-30T21:33:49.049Z,7.71
2022-07-30T21:48:50.675Z,6.27
2022-07-30T22:04:01.332Z,6.18
2022-07-30T22:18:48.422Z,5.64
2022-07-30T22:33:49.778Z,5.46
2022-07-30T22:48:49.080Z,5
2022-07-30T23:03:48.672Z,5.56
2022-07-30T23:18:49.126Z,5.2
2022-07-30T23:33:48.581Z,5.09
2022-07-30T23:48:49.071Z,4.73
